createdAt,value
2023-05-02T00:00:40.919Z,100.00
2023-05-02T00:03:08.562Z,100.00
2023-05-02T00:05:35.585Z,100.00
2023-05-02T00:08:02.333Z,100.00
2023-05-02T00:10:29.222Z,100.00
2023-05-02T00:12:56.078Z,100.00
2023-05-02T00:15:23.009Z,100.00
2023-05-02T00:17:49.811Z,100.00
2023-05-02T00:20:16.777Z,100.00
2023-05-02T00:22:43.455Z,100.00
2023-05-02T00:25:10.430Z,100.00
2023-05-02T00:27:37.452Z,100.00
2023-05-02T00:30:04.490Z,100.00
2023-05-02T00:32:31.273Z,100.00
2023-05-02T00:34:57.969Z,100.00
2023-05-02T00:37:27.778Z,100.00
2023-05-02T00:39:54.964Z,100.00
2023-05-02T00:42:21.733Z,100.00
2023-05-02T00:44:48.636Z,100.00
2023-05-02T00:47:16.223Z,100.00
2023-05-02T00:49:42.917Z,100.00
2023-05-02T00:52:09.933Z,100.00
2023-05-02T00:54:39.682Z,100.00
2023-05-02T00:57:07.134Z,100.00
2023-05-02T00:59:35.428Z,100.00
2023-05-02T01:02:44.383Z,100.00
2023-05-02T01:05:22.256Z,100.00
2023-05-02T01:08:09.334Z,100.00
2023-05-02T01:11:15.317Z,100.00
2023-05-02T01:13:44.727Z,100.00
2023-05-02T01:16:12.648Z,100.00
2023-05-02T01:18:41.528Z,100.00
2023-05-02T01:21:10.138Z,100.00
2023-05-02T01:24:13.297Z,100.00
2023-05-02T01:26:48.581Z,100.00
2023-05-02T01:29:16.181Z,100.00
2023-05-02T01:31:43.947Z,100.00
2023-05-02T01:34:11.297Z,100.00
2023-05-02T01:36:45.790Z,100.00
2023-05-02T01:39:17.075Z,100.00
2023-05-02T01:41:44.116Z,100.00
2023-05-02T01:44:11.598Z,100.00
2023-05-02T01:46:40.611Z,100.00
2023-05-02T01:49:08.310Z,100.00
2023-05-02T01:51:37.619Z,100.00
2023-05-02T01:54:06.118Z,100.00
2023-05-02T01:56:38.006Z,100.00
2023-05-02T01:59:07.078Z,100.00
2023-05-02T02:01:38.615Z,100.00
2023-05-02T02:04:07.039Z,100.00
2023-05-02T02:06:34.210Z,100.00
2023-05-02T02:09:01.312Z,100.00
2023-05-02T02:11:37.218Z,100.00
2023-05-02T02:14:07.696Z,100.00
2023-05-02T02:16:37.888Z,100.00
2023-05-02T02:19:08.737Z,100.00
2023-05-02T02:21:36.842Z,100.00
2023-05-02T02:24:05.872Z,100.00
2023-05-02T02:26:32.686Z,100.00
2023-05-02T02:29:00.710Z,100.00
2023-05-02T02:31:32.199Z,100.00
2023-05-02T02:33:59.518Z,100.00
2023-05-02T02:36:56.021Z,100.00
2023-05-02T02:40:04.395Z,100.00
2023-05-02T02:42:45.429Z,100.00
2023-05-02T02:45:20.005Z,100.00
2023-05-02T02:47:58.939Z,100.00
2023-05-02T02:50:34.983Z,100.00
2023-05-02T02:53:18.488Z,100.00
2023-05-02T02:55:53.893Z,100.00
2023-05-02T02:58:30.035Z,100.00
2023-05-02T03:00:57.477Z,100.00
2023-05-02T03:03:29.394Z,100.00
2023-05-02T03:05:57.084Z,100.00
2023-05-02T03:08:24.467Z,100.00
2023-05-02T03:10:51.683Z,100.00
2023-05-02T03:13:18.392Z,100.00
2023-05-02T03:16:13.108Z,100.00
2023-05-02T03:18:40.783Z,100.00
2023-05-02T03:21:07.513Z,100.00
2023-05-02T03:23:34.228Z,100.00
2023-05-02T03:26:01.049Z,100.00
2023-05-02T03:28:27.734Z,100.00
2023-05-02T03:30:54.434Z,100.00
2023-05-02T03:33:21.128Z,100.00
2023-05-02T03:35:47.851Z,100.00
2023-05-02T03:38:14.622Z,100.00
2023-05-02T03:40:41.289Z,100.00
2023-05-02T03:43:08.021Z,100.00
2023-05-02T03:45:34.958Z,100.00
2023-05-02T03:48:01.732Z,100.00
2023-05-02T03:50:28.722Z,100.00
2023-05-02T03:52:55.470Z,100.00
2023-05-02T03:55:22.247Z,100.00
2023-05-02T03:57:48.963Z,100.00
2023-05-02T04:00:16.179Z,100.00
2023-05-02T04:02:43.035Z,100.00
2023-05-02T04:05:09.929Z,100.00
2023-05-02T04:07:36.661Z,100.00
2023-05-02T04:10:03.738Z,100.00
2023-05-02T04:12:31.040Z,100.00
2023-05-02T04:14:57.877Z,100.00
2023-05-02T04:17:24.587Z,100.00
2023-05-02T04:19:52.127Z,100.00
2023-05-02T04:22:18.879Z,100.00
2023-05-02T04:24:45.672Z,100.00
2023-05-02T04:27:14.424Z,100.00
2023-05-02T04:29:41.897Z,100.00
2023-05-02T04:32:08.624Z,100.00
2023-05-02T04:34:35.334Z,100.00
2023-05-02T04:37:02.108Z,100.00
2023-05-02T04:39:28.799Z,100.00
2023-05-02T04:41:55.670Z,100.00
2023-05-02T04:44:22.388Z,100.00
2023-05-02T04:46:49.121Z,100.00
2023-05-02T04:49:15.920Z,100.00
2023-05-02T04:51:42.628Z,100.00
2023-05-02T04:54:09.371Z,100.00
2023-05-02T04:56:36.114Z,100.00
2023-05-02T04:59:02.764Z,100.00
2023-05-02T05:01:29.566Z,100.00
2023-05-02T05:03:56.722Z,100.00
2023-05-02T05:06:24.643Z,100.00
2023-05-02T05:08:51.419Z,100.00
2023-05-02T05:11:18.227Z,100.00
2023-05-02T05:13:44.940Z,100.00
2023-05-02T05:16:12.318Z,100.00
2023-05-02T05:18:42.234Z,100.00
2023-05-02T05:21:09.753Z,100.00
2023-05-02T05:23:37.574Z,100.00
2023-05-02T05:26:15.855Z,100.00
2023-05-02T05:28:43.108Z,100.00
2023-05-02T05:31:16.589Z,100.00
2023-05-02T05:33:44.327Z,100.00
2023-05-02T05:36:13.177Z,100.00
2023-05-02T05:38:39.960Z,100.00
2023-05-02T05:41:08.357Z,100.00
2023-05-02T05:43:37.801Z,100.00
2023-05-02T05:46:05.171Z,100.00
2023-05-02T05:48:32.180Z,100.00
2023-05-02T05:50:58.880Z,100.00
2023-05-02T05:53:25.982Z,100.00
2023-05-02T05:55:52.672Z,100.00
2023-05-02T05:58:19.468Z,100.00
2023-05-02T06:00:46.217Z,100.00
2023-05-02T06:03:13.141Z,100.00
2023-05-02T06:05:39.890Z,100.00
2023-05-02T06:08:06.764Z,100.00
2023-05-02T06:10:33.585Z,100.00
2023-05-02T06:13:00.442Z,100.00
2023-05-02T06:15:27.117Z,100.00
2023-05-02T06:17:53.916Z,100.00
2023-05-02T06:20:20.887Z,100.00
2023-05-02T06:22:47.623Z,100.00
2023-05-02T06:25:14.569Z,100.00
2023-05-02T06:27:41.236Z,100.00
2023-05-02T06:30:08.637Z,100.00
2023-05-02T06:32:35.352Z,100.00
2023-05-02T06:35:02.334Z,100.00
2023-05-02T06:37:34.946Z,100.00
2023-05-02T06:40:02.512Z,100.00
2023-05-02T06:42:29.824Z,100.00
2023-05-02T06:44:56.876Z,100.00
2023-05-02T06:47:24.947Z,100.00
2023-05-02T06:49:53.182Z,100.00
2023-05-02T06:52:20.293Z,100.00
2023-05-02T06:54:50.468Z,100.00
2023-05-02T06:57:17.187Z,100.00
2023-05-02T06:59:44.122Z,100.00
2023-05-02T07:02:11.541Z,100.00
2023-05-02T07:04:38.448Z,100.00
2023-05-02T07:07:05.398Z,100.00
2023-05-02T07:09:32.217Z,100.00
2023-05-02T07:11:58.965Z,100.00
2023-05-02T07:14:25.647Z,97.91
2023-05-02T07:16:52.432Z,96.50
2023-05-02T07:19:19.864Z,96.11
2023-05-02T07:21:46.651Z,96.32
2023-05-02T07:24:13.414Z,95.92
2023-05-02T07:26:40.216Z,96.81
2023-05-02T07:29:07.134Z,97.60
2023-05-02T07:31:34.207Z,98.11
2023-05-02T07:34:00.948Z,97.64
2023-05-02T07:36:28.572Z,97.21
2023-05-02T07:38:55.752Z,94.88
2023-05-02T07:41:22.445Z,94.39
2023-05-02T07:43:49.146Z,93.09
2023-05-02T07:46:16.005Z,92.55
2023-05-02T07:48:43.183Z,91.77
2023-05-02T07:51:11.108Z,91.02
2023-05-02T07:53:37.938Z,90.03
2023-05-02T07:56:07.416Z,90.32
2023-05-02T07:58:38.554Z,91.95
2023-05-02T08:01:05.430Z,92.01
2023-05-02T08:03:32.424Z,89.80
2023-05-02T08:05:59.284Z,88.89
2023-05-02T08:08:26.164Z,90.19
2023-05-02T08:10:52.890Z,90.46
2023-05-02T08:13:19.820Z,90.54
2023-05-02T08:15:46.632Z,90.71
2023-05-02T08:18:13.527Z,89.72
2023-05-02T08:20:40.261Z,90.40
2023-05-02T08:23:07.011Z,89.26
2023-05-02T08:25:33.795Z,88.93
2023-05-02T08:28:00.728Z,87.21
2023-05-02T08:30:27.569Z,86.34
2023-05-02T08:32:54.303Z,84.86
2023-05-02T08:35:21.360Z,81.93
2023-05-02T08:37:48.102Z,82.07
2023-05-02T08:40:15.441Z,82.20
2023-05-02T08:42:44.987Z,82.13
2023-05-02T08:45:14.216Z,82.37
2023-05-02T08:47:43.183Z,84.23
2023-05-02T08:50:12.119Z,84.12
2023-05-02T08:52:39.231Z,83.88
2023-05-02T08:55:07.894Z,84.19
2023-05-02T08:57:34.654Z,85.37
2023-05-02T09:00:02.231Z,84.84
2023-05-02T09:02:48.509Z,82.03
2023-05-02T09:05:20.420Z,81.54
2023-05-02T09:07:48.978Z,81.10
2023-05-02T09:10:16.460Z,82.10
2023-05-02T09:12:43.634Z,82.81
2023-05-02T09:15:14.845Z,82.40
2023-05-02T09:17:48.989Z,82.37
2023-05-02T09:20:16.388Z,82.71
2023-05-02T09:22:51.097Z,82.73
2023-05-02T09:25:18.470Z,82.25
2023-05-02T09:27:56.207Z,82.51
2023-05-02T09:30:26.814Z,81.24
2023-05-02T09:32:56.222Z,78.80
2023-05-02T09:35:24.223Z,82.04
2023-05-02T09:37:53.778Z,81.24
2023-05-02T09:40:20.869Z,75.24
2023-05-02T09:42:48.150Z,75.73
2023-05-02T09:45:22.521Z,75.99
2023-05-02T09:47:49.693Z,75.07
2023-05-02T09:50:37.343Z,75.48
2023-05-02T09:53:06.187Z,74.02
2023-05-02T09:55:33.010Z,72.72
2023-05-02T09:58:00.252Z,74.33
2023-05-02T10:00:46.206Z,81.69
2023-05-02T10:03:16.846Z,84.53
2023-05-02T10:05:45.262Z,87.25
2023-05-02T10:08:13.009Z,90.34
2023-05-02T10:10:41.618Z,90.95
2023-05-02T10:13:09.162Z,91.49
2023-05-02T10:15:38.261Z,92.03
2023-05-02T10:18:13.513Z,90.53
2023-05-02T10:20:45.032Z,89.39
2023-05-02T10:23:12.408Z,88.84
2023-05-02T10:25:39.772Z,90.50
2023-05-02T10:28:06.803Z,87.88
2023-05-02T10:30:34.338Z,84.34
2023-05-02T10:33:01.859Z,82.43
2023-05-02T10:35:28.948Z,80.61
2023-05-02T10:37:56.291Z,78.48
2023-05-02T10:40:23.365Z,78.44
2023-05-02T10:42:51.843Z,77.14
2023-05-02T10:45:35.667Z,77.15
2023-05-02T10:48:27.931Z,80.09
2023-05-02T10:51:01.556Z,77.74
2023-05-02T10:53:37.252Z,78.04
2023-05-02T10:56:25.873Z,77.35
2023-05-02T10:58:53.956Z,78.23
2023-05-02T11:01:34.556Z,77.62
2023-05-02T11:04:07.763Z,78.17
2023-05-02T11:06:36.420Z,75.32
2023-05-02T11:09:38.794Z,75.96
2023-05-02T11:12:05.760Z,76.57
2023-05-02T11:14:45.198Z,77.44
2023-05-02T11:17:11.991Z,75.92
2023-05-02T11:19:58.955Z,78.35
2023-05-02T11:22:34.841Z,77.61
2023-05-02T11:25:02.163Z,80.68
2023-05-02T11:27:49.474Z,79.88
2023-05-02T11:30:44.204Z,80.26
2023-05-02T11:33:12.328Z,78.94
2023-05-02T11:35:42.396Z,79.43
2023-05-02T11:38:13.585Z,80.31
2023-05-02T11:40:40.625Z,79.49
2023-05-02T11:43:18.642Z,79.82
2023-05-02T11:45:45.826Z,79.99
2023-05-02T11:48:14.003Z,80.32
2023-05-02T11:50:51.593Z,81.64
2023-05-02T11:53:22.648Z,82.39
2023-05-02T11:55:57.674Z,80.85
2023-05-02T11:58:34.151Z,81.39
2023-05-02T12:01:15.098Z,80.98
2023-05-02T12:03:42.344Z,80.33
2023-05-02T12:06:12.263Z,80.78
2023-05-02T12:08:40.687Z,80.27
2023-05-02T12:11:09.501Z,81.65
2023-05-02T12:13:45.287Z,81.82
2023-05-02T12:16:12.052Z,82.63
2023-05-02T12:18:38.848Z,83.25
2023-05-02T12:21:06.036Z,83.72
2023-05-02T12:23:34.003Z,84.73
2023-05-02T12:26:25.896Z,84.63
2023-05-02T12:28:54.997Z,85.31
2023-05-02T12:31:22.159Z,84.16
2023-05-02T12:33:50.525Z,86.28
2023-05-02T12:36:18.082Z,85.39
2023-05-02T12:38:49.586Z,85.69
2023-05-02T12:41:16.417Z,86.48
2023-05-02T12:43:48.265Z,88.04
2023-05-02T12:46:15.104Z,87.67
2023-05-02T12:48:42.051Z,87.41
2023-05-02T12:51:21.489Z,87.11
2023-05-02T12:53:48.273Z,88.68
2023-05-02T12:56:15.159Z,89.23
2023-05-02T12:58:48.405Z,87.41
2023-05-02T13:01:15.742Z,86.56
2023-05-02T13:03:43.608Z,88.02
2023-05-02T13:06:10.738Z,87.14
2023-05-02T13:08:37.536Z,88.25
2023-05-02T13:11:04.717Z,87.68
2023-05-02T13:13:32.890Z,86.89
2023-05-02T13:15:59.871Z,87.27
2023-05-02T13:18:28.418Z,87.28
2023-05-02T13:20:55.381Z,87.52
2023-05-02T13:23:22.387Z,87.18
2023-05-02T13:25:49.269Z,87.93
2023-05-02T13:28:16.094Z,85.22
2023-05-02T13:30:42.895Z,85.95
2023-05-02T13:33:09.732Z,86.63
2023-05-02T13:35:36.626Z,85.00
2023-05-02T13:38:04.172Z,86.32
2023-05-02T13:40:30.961Z,85.72
2023-05-02T13:42:57.900Z,84.91
2023-05-02T13:45:24.994Z,85.06
2023-05-02T13:47:51.785Z,83.84
2023-05-02T13:50:18.512Z,83.09
2023-05-02T13:52:47.688Z,82.75
2023-05-02T13:55:15.796Z,82.66
2023-05-02T13:57:42.562Z,84.34
2023-05-02T14:00:10.500Z,85.11
2023-05-02T14:02:37.891Z,84.46
2023-05-02T14:05:05.134Z,85.49
2023-05-02T14:07:32.028Z,84.84
2023-05-02T14:09:58.744Z,85.34
2023-05-02T14:12:26.123Z,86.79
2023-05-02T14:14:52.934Z,84.51
2023-05-02T14:17:19.837Z,85.80
2023-05-02T14:19:47.047Z,84.60
2023-05-02T14:22:13.833Z,85.49
2023-05-02T14:24:40.741Z,85.78
2023-05-02T14:27:09.530Z,86.31
2023-05-02T14:29:36.279Z,86.97
2023-05-02T14:32:03.025Z,86.82
2023-05-02T14:34:29.904Z,85.51
2023-05-02T14:36:56.690Z,84.90
2023-05-02T14:39:23.496Z,84.33
2023-05-02T14:41:50.325Z,84.84
2023-05-02T14:44:18.525Z,84.09
2023-05-02T14:46:45.345Z,84.02
2023-05-02T14:49:12.102Z,85.33
2023-05-02T14:51:39.715Z,86.46
2023-05-02T14:54:07.456Z,86.66
2023-05-02T14:56:34.233Z,87.44
2023-05-02T14:59:01.036Z,87.60
2023-05-02T15:01:27.871Z,86.43
2023-05-02T15:04:06.642Z,85.37
2023-05-02T15:06:35.425Z,86.07
2023-05-02T15:09:02.551Z,84.88
2023-05-02T15:11:29.222Z,84.02
2023-05-02T15:13:58.438Z,84.06
2023-05-02T15:16:27.382Z,83.67
2023-05-02T15:18:54.538Z,83.10
2023-05-02T15:21:21.539Z,82.15
2023-05-02T15:23:48.245Z,81.11
2023-05-02T15:26:15.374Z,82.52
2023-05-02T15:28:42.110Z,82.95
2023-05-02T15:31:08.943Z,84.50
2023-05-02T15:33:35.788Z,82.12
2023-05-02T15:36:02.734Z,80.86
2023-05-02T15:38:29.565Z,80.07
2023-05-02T15:41:00.585Z,80.78
2023-05-02T15:43:27.722Z,79.85
2023-05-02T15:45:56.037Z,79.73
2023-05-02T15:48:23.397Z,79.65
2023-05-02T15:50:50.155Z,77.87
2023-05-02T15:53:17.456Z,77.99
2023-05-02T15:55:46.114Z,78.23
2023-05-02T15:58:13.557Z,77.24
2023-05-02T16:00:40.605Z,77.81
2023-05-02T16:03:12.356Z,78.59
2023-05-02T16:05:39.322Z,79.97
2023-05-02T16:08:06.345Z,80.45
2023-05-02T16:10:33.361Z,79.88
2023-05-02T16:13:00.087Z,81.02
2023-05-02T16:15:26.896Z,81.46
2023-05-02T16:17:53.770Z,82.17
2023-05-02T16:20:20.701Z,82.57
2023-05-02T16:22:48.738Z,82.95
2023-05-02T16:25:17.178Z,84.04
2023-05-02T16:27:43.927Z,82.62
2023-05-02T16:30:11.314Z,82.45
2023-05-02T16:32:38.179Z,82.78
2023-05-02T16:35:07.617Z,79.87
2023-05-02T16:37:35.447Z,79.35
2023-05-02T16:40:03.214Z,79.08
2023-05-02T16:42:30.604Z,78.99
2023-05-02T16:44:57.740Z,77.78
2023-05-02T16:47:24.641Z,78.09
2023-05-02T16:49:56.075Z,78.29
2023-05-02T16:52:23.028Z,78.82
2023-05-02T16:54:49.985Z,77.79
2023-05-02T16:57:23.500Z,76.76
2023-05-02T16:59:52.350Z,77.55
2023-05-02T17:02:21.169Z,77.88
2023-05-02T17:04:48.916Z,75.72
2023-05-02T17:07:15.896Z,76.98
2023-05-02T17:09:43.019Z,78.20
2023-05-02T17:12:13.514Z,74.83
2023-05-02T17:14:42.571Z,75.59
2023-05-02T17:17:10.203Z,76.24
2023-05-02T17:19:37.150Z,77.76
2023-05-02T17:22:05.442Z,77.48
2023-05-02T17:24:32.821Z,77.13
2023-05-02T17:26:59.703Z,76.68
2023-05-02T17:29:26.661Z,76.82
2023-05-02T17:31:53.568Z,76.75
2023-05-02T17:34:25.935Z,79.02
2023-05-02T17:36:52.796Z,78.14
2023-05-02T17:39:19.674Z,77.13
2023-05-02T17:41:46.560Z,78.18
2023-05-02T17:44:13.341Z,76.80
2023-05-02T17:46:40.192Z,76.39
2023-05-02T17:49:07.021Z,76.53
2023-05-02T17:51:34.064Z,77.28
2023-05-02T17:54:01.213Z,77.51
2023-05-02T17:56:28.666Z,77.28
2023-05-02T17:58:56.470Z,76.45
2023-05-02T18:01:23.230Z,75.17
2023-05-02T18:03:50.236Z,74.65
2023-05-02T18:06:18.471Z,75.16
2023-05-02T18:08:45.656Z,76.29
2023-05-02T18:11:19.950Z,75.96
2023-05-02T18:13:46.701Z,75.30
2023-05-02T18:16:14.369Z,75.08
2023-05-02T18:18:41.616Z,74.66
2023-05-02T18:21:09.881Z,73.32
2023-05-02T18:23:36.665Z,72.53
2023-05-02T18:26:03.934Z,71.71
2023-05-02T18:28:30.673Z,71.75
2023-05-02T18:30:57.579Z,70.99
2023-05-02T18:33:24.418Z,71.21
2023-05-02T18:35:51.172Z,70.56
2023-05-02T18:38:18.494Z,71.04
2023-05-02T18:40:45.456Z,70.73
2023-05-02T18:43:12.211Z,69.89
2023-05-02T18:45:39.237Z,69.83
2023-05-02T18:48:06.462Z,70.09
2023-05-02T18:50:33.292Z,68.54
2023-05-02T18:53:00.158Z,69.03
2023-05-02T18:55:26.875Z,69.77
2023-05-02T18:57:53.613Z,68.99
2023-05-02T19:00:20.625Z,67.68
2023-05-02T19:02:48.106Z,67.26
2023-05-02T19:05:15.379Z,67.45
2023-05-02T19:07:42.573Z,67.20
2023-05-02T19:10:11.553Z,68.65
2023-05-02T19:12:38.665Z,68.51
2023-05-02T19:15:06.899Z,68.12
2023-05-02T19:17:33.888Z,69.07
2023-05-02T19:20:00.625Z,69.01
2023-05-02T19:22:27.929Z,68.37
2023-05-02T19:24:54.743Z,69.53
2023-05-02T19:27:21.470Z,69.21
2023-05-02T19:29:48.389Z,70.03
2023-05-02T19:32:15.301Z,70.56
2023-05-02T19:34:42.349Z,71.22
2023-05-02T19:37:09.103Z,70.32
2023-05-02T19:39:35.919Z,69.05
2023-05-02T19:42:03.479Z,70.10
2023-05-02T19:44:30.465Z,70.40
2023-05-02T19:46:57.143Z,70.99
2023-05-02T19:49:23.935Z,70.89
2023-05-02T19:51:50.744Z,71.88
2023-05-02T19:54:17.399Z,71.80
2023-05-02T19:56:44.321Z,72.20
2023-05-02T19:59:11.094Z,73.36
2023-05-02T20:01:37.967Z,74.92
2023-05-02T20:04:04.854Z,75.44
2023-05-02T20:06:32.511Z,77.28
2023-05-02T20:08:59.400Z,79.19
2023-05-02T20:11:26.438Z,80.01
2023-05-02T20:13:54.581Z,79.84
2023-05-02T20:16:21.501Z,80.03
2023-05-02T20:18:48.374Z,80.22
2023-05-02T20:21:15.309Z,79.89
2023-05-02T20:23:43.741Z,79.00
2023-05-02T20:26:10.756Z,80.01
2023-05-02T20:28:38.123Z,80.43
2023-05-02T20:31:05.098Z,82.14
2023-05-02T20:33:43.947Z,84.44
2023-05-02T20:36:12.904Z,84.33
2023-05-02T20:38:42.743Z,87.64
2023-05-02T20:41:12.942Z,85.85
2023-05-02T20:43:45.405Z,83.84
2023-05-02T20:46:13.722Z,84.72
2023-05-02T20:48:40.604Z,85.44
2023-05-02T20:51:08.896Z,86.70
2023-05-02T20:53:36.872Z,86.80
2023-05-02T20:56:03.732Z,86.82
2023-05-02T20:58:30.460Z,86.42
2023-05-02T21:00:57.374Z,85.95
2023-05-02T21:03:24.177Z,84.59
2023-05-02T21:05:52.713Z,84.69
2023-05-02T21:08:19.992Z,84.86
2023-05-02T21:10:47.110Z,83.83
2023-05-02T21:13:14.018Z,86.62
2023-05-02T21:15:41.107Z,87.09
2023-05-02T21:18:07.919Z,86.90
2023-05-02T21:20:36.218Z,88.62
2023-05-02T21:23:02.965Z,87.01
2023-05-02T21:25:29.926Z,87.28
2023-05-02T21:27:56.785Z,86.20
2023-05-02T21:30:24.695Z,85.97
2023-05-02T21:32:51.609Z,85.99
2023-05-02T21:35:18.388Z,85.08
2023-05-02T21:37:45.137Z,86.11
2023-05-02T21:40:12.545Z,85.60
2023-05-02T21:42:39.326Z,86.33
2023-05-02T21:45:06.968Z,86.46
2023-05-02T21:47:33.857Z,86.37
2023-05-02T21:50:00.849Z,86.98
2023-05-02T21:52:28.410Z,87.32
2023-05-02T21:54:55.112Z,87.04
2023-05-02T21:57:21.865Z,86.20
2023-05-02T21:59:48.597Z,86.83
2023-05-02T22:02:15.390Z,86.70
2023-05-02T22:04:42.159Z,87.22
2023-05-02T22:07:08.889Z,88.23
2023-05-02T22:09:35.656Z,88.59
2023-05-02T22:12:03.237Z,89.07
2023-05-02T22:14:37.623Z,89.09
2023-05-02T22:17:10.808Z,90.94
2023-05-02T22:19:37.895Z,90.01
2023-05-02T22:22:05.644Z,88.93
2023-05-02T22:24:32.378Z,89.18
2023-05-02T22:26:59.181Z,88.38
2023-05-02T22:29:25.961Z,87.73
2023-05-02T22:31:52.755Z,88.56
2023-05-02T22:34:19.641Z,87.93
2023-05-02T22:36:46.565Z,87.87
2023-05-02T22:39:15.892Z,88.54
2023-05-02T22:41:43.180Z,88.77
2023-05-02T22:44:10.322Z,91.04
2023-05-02T22:46:38.393Z,91.74
2023-05-02T22:49:10.596Z,92.75
2023-05-02T22:51:41.792Z,91.66
2023-05-02T22:54:08.809Z,92.17
2023-05-02T22:56:35.682Z,90.21
2023-05-02T22:59:02.644Z,91.82
2023-05-02T23:01:29.536Z,91.31
2023-05-02T23:03:56.601Z,91.56
2023-05-02T23:06:23.594Z,91.70
2023-05-02T23:08:50.401Z,91.06
2023-05-02T23:11:17.129Z,91.93
2023-05-02T23:13:43.801Z,92.29
2023-05-02T23:16:10.646Z,92.51
2023-05-02T23:18:37.463Z,90.91
2023-05-02T23:21:04.674Z,90.70
2023-05-02T23:23:31.523Z,91.64
2023-05-02T23:25:58.475Z,92.77
2023-05-02T23:28:26.327Z,93.54
2023-05-02T23:30:53.933Z,92.76
2023-05-02T23:33:20.844Z,93.82
2023-05-02T23:35:48.048Z,93.44
2023-05-02T23:38:14.868Z,93.92
2023-05-02T23:40:41.589Z,94.69
2023-05-02T23:43:09.047Z,93.61
2023-05-02T23:45:35.915Z,93.64
2023-05-02T23:48:02.783Z,93.14
2023-05-02T23:50:29.565Z,95.30
2023-05-02T23:52:56.313Z,94.67
2023-05-02T23:55:23.048Z,95.16
2023-05-02T23:57:49.857Z,97.59
